sensor_id;sensor_type;location;lat;lon;timestamp;P1;durP1;ratioP1;P2;durP2;ratioP2
51943;SDS011;37969;53.132;6.370;2023-02-26T00:01:52;12.13;;;2.50;;
51943;SDS011;37969;53.132;6.370;2023-02-26T00:04:22;5.30;;;1.92;;
51943;SDS011;37969;53.132;6.370;2023-02-26T00:06:48;11.10;;;2.50;;
51943;SDS011;37969;53.132;6.370;2023-02-26T00:09:21;8.07;;;2.17;;
51943;SDS011;37969;53.132;6.370;2023-02-26T00:11:47;8.63;;;2.50;;
51943;SDS011;37969;53.132;6.370;2023-02-26T00:14:14;6.32;;;2.10;;
51943;SDS011;37969;53.132;6.370;2023-02-26T00:16:41;9.35;;;2.90;;
51943;SDS011;37969;53.132;6.370;2023-02-26T00:19:09;12.40;;;2.38;;
51943;SDS011;37969;53.132;6.370;2023-02-26T00:21:36;9.32;;;3.20;;
51943;SDS011;37969;53.132;6.370;2023-02-26T00:24:02;9.00;;;2.38;;
51943;SDS011;37969;53.132;6.370;2023-02-26T00:26:30;15.48;;;3.58;;
51943;SDS011;37969;53.132;6.370;2023-02-26T00:28:57;11.05;;;2.83;;
51943;SDS011;37969;53.132;6.370;2023-02-26T00:31:23;15.20;;;3.70;;
51943;SDS011;37969;53.132;6.370;2023-02-26T00:33:50;11.95;;;3.78;;
51943;SDS011;37969;53.132;6.370;2023-02-26T00:38:43;14.18;;;4.82;;
51943;SDS011;37969;53.132;6.370;2023-02-26T00:41:12;21.27;;;5.30;;
51943;SDS011;37969;53.132;6.370;2023-02-26T00:43:39;24.10;;;5.53;;
51943;SDS011;37969;53.132;6.370;2023-02-26T00:46:20;16.50;;;4.72;;
51943;SDS011;37969;53.132;6.370;2023-02-26T00:56:14;8.82;;;3.17;;
51943;SDS011;37969;53.132;6.370;2023-02-26T00:58:40;8.45;;;1.05;;
51943;SDS011;37969;53.132;6.370;2023-02-26T01:01:06;3.22;;;0.93;;
51943;SDS011;37969;53.132;6.370;2023-02-26T01:03:32;7.03;;;1.05;;
51943;SDS011;37969;53.132;6.370;2023-02-26T01:05:59;4.40;;;1.02;;
51943;SDS011;37969;53.132;6.370;2023-02-26T01:10:52;9.15;;;1.30;;
51943;SDS011;37969;53.132;6.370;2023-02-26T01:13:18;7.65;;;1.35;;
51943;SDS011;37969;53.132;6.370;2023-02-26T01:15:47;10.15;;;1.33;;
51943;SDS011;37969;53.132;6.370;2023-02-26T01:20:43;6.20;;;1.00;;
51943;SDS011;37969;53.132;6.370;2023-02-26T01:23:13;4.43;;;1.03;;
51943;SDS011;37969;53.132;6.370;2023-02-26T01:25:51;3.40;;;0.85;;
51943;SDS011;37969;53.132;6.370;2023-02-26T01:28:19;8.63;;;1.27;;
51943;SDS011;37969;53.132;6.370;2023-02-26T01:30:45;8.60;;;1.33;;
51943;SDS011;37969;53.132;6.370;2023-02-26T01:35:47;3.58;;;0.98;;
51943;SDS011;37969;53.132;6.370;2023-02-26T01:43:11;3.75;;;0.90;;
51943;SDS011;37969;53.132;6.370;2023-02-26T01:45:38;5.53;;;1.17;;
51943;SDS011;37969;53.132;6.370;2023-02-26T01:48:17;4.13;;;1.05;;
51943;SDS011;37969;53.132;6.370;2023-02-26T01:50:46;4.10;;;1.10;;
51943;SDS011;37969;53.132;6.370;2023-02-26T01:53:21;3.60;;;0.93;;
51943;SDS011;37969;53.132;6.370;2023-02-26T01:55:51;4.55;;;1.00;;
51943;SDS011;37969;53.132;6.370;2023-02-26T02:00:44;3.20;;;0.82;;
51943;SDS011;37969;53.132;6.370;2023-02-26T02:03:10;6.32;;;1.40;;
51943;SDS011;37969;53.132;6.370;2023-02-26T02:05:39;6.82;;;1.02;;
51943;SDS011;37969;53.132;6.370;2023-02-26T02:08:06;4.15;;;1.13;;
51943;SDS011;37969;53.132;6.370;2023-02-26T02:10:33;5.97;;;1.33;;
51943;SDS011;37969;53.132;6.370;2023-02-26T02:13:03;11.38;;;1.23;;
51943;SDS011;37969;53.132;6.370;2023-02-26T02:25:32;9.63;;;1.40;;
51943;SDS011;37969;53.132;6.370;2023-02-26T02:28:06;6.88;;;1.10;;
51943;SDS011;37969;53.132;6.370;2023-02-26T02:30:55;6.80;;;0.85;;
51943;SDS011;37969;53.132;6.370;2023-02-26T02:33:21;4.88;;;1.35;;
51943;SDS011;37969;53.132;6.370;2023-02-26T02:35:52;7.20;;;1.17;;
51943;SDS011;37969;53.132;6.370;2023-02-26T02:38:22;7.75;;;1.23;;
51943;SDS011;37969;53.132;6.370;2023-02-26T02:43:32;8.23;;;1.23;;
51943;SDS011;37969;53.132;6.370;2023-02-26T02:46:00;5.68;;;1.30;;
51943;SDS011;37969;53.132;6.370;2023-02-26T02:51:00;7.32;;;1.10;;
51943;SDS011;37969;53.132;6.370;2023-02-26T02:53:29;7.80;;;2.00;;
51943;SDS011;37969;53.132;6.370;2023-02-26T02:56:01;9.05;;;2.10;;
51943;SDS011;37969;53.132;6.370;2023-02-26T02:58:30;13.25;;;2.78;;
51943;SDS011;37969;53.132;6.370;2023-02-26T03:00:58;5.38;;;2.38;;
51943;SDS011;37969;53.132;6.370;2023-02-26T03:03:37;10.35;;;2.88;;
51943;SDS011;37969;53.132;6.370;2023-02-26T03:06:07;5.85;;;1.52;;
51943;SDS011;37969;53.132;6.370;2023-02-26T03:08:36;11.35;;;1.55;;
51943;SDS011;37969;53.132;6.370;2023-02-26T03:13:29;5.88;;;0.95;;
51943;SDS011;37969;53.132;6.370;2023-02-26T03:20:55;6.22;;;1.75;;
51943;SDS011;37969;53.132;6.370;2023-02-26T03:23:27;3.90;;;0.80;;
51943;SDS011;37969;53.132;6.370;2023-02-26T03:25:57;12.02;;;1.30;;
51943;SDS011;37969;53.132;6.370;2023-02-26T03:28:28;8.25;;;1.10;;
51943;SDS011;37969;53.132;6.370;2023-02-26T03:30:57;6.68;;;1.10;;
51943;SDS011;37969;53.132;6.370;2023-02-26T03:35:58;8.02;;;1.23;;
51943;SDS011;37969;53.132;6.370;2023-02-26T03:38:29;6.18;;;1.15;;
51943;SDS011;37969;53.132;6.370;2023-02-26T03:41:00;6.55;;;1.33;;
51943;SDS011;37969;53.132;6.370;2023-02-26T03:45:59;8.80;;;1.60;;
51943;SDS011;37969;53.132;6.370;2023-02-26T03:48:27;7.88;;;1.73;;
51943;SDS011;37969;53.132;6.370;2023-02-26T03:50:56;12.35;;;1.25;;
51943;SDS011;37969;53.132;6.370;2023-02-26T03:53:25;3.47;;;1.27;;
51943;SDS011;37969;53.132;6.370;2023-02-26T03:55:54;5.68;;;1.35;;
51943;SDS011;37969;53.132;6.370;2023-02-26T03:58:23;7.38;;;1.30;;
51943;SDS011;37969;53.132;6.370;2023-02-26T04:00:51;3.83;;;0.90;;
51943;SDS011;37969;53.132;6.370;2023-02-26T04:03:23;5.43;;;1.00;;
51943;SDS011;37969;53.132;6.370;2023-02-26T04:05:51;3.95;;;1.25;;
51943;SDS011;37969;53.132;6.370;2023-02-26T04:08:19;11.65;;;1.42;;
51943;SDS011;37969;53.132;6.370;2023-02-26T04:10:51;5.13;;;0.90;;
51943;SDS011;37969;53.132;6.370;2023-02-26T04:13:18;2.60;;;0.70;;
51943;SDS011;37969;53.132;6.370;2023-02-26T04:15:44;7.90;;;0.90;;
51943;SDS011;37969;53.132;6.370;2023-02-26T04:18:10;8.25;;;1.00;;
51943;SDS011;37969;53.132;6.370;2023-02-26T04:20:37;7.95;;;0.95;;
51943;SDS011;37969;53.132;6.370;2023-02-26T04:23:03;5.43;;;1.05;;
51943;SDS011;37969;53.132;6.370;2023-02-26T04:25:29;10.18;;;1.05;;
51943;SDS011;37969;53.132;6.370;2023-02-26T04:27:55;8.13;;;1.00;;
51943;SDS011;37969;53.132;6.370;2023-02-26T04:30:21;13.98;;;1.63;;
51943;SDS011;37969;53.132;6.370;2023-02-26T04:32:48;5.57;;;0.90;;
51943;SDS011;37969;53.132;6.370;2023-02-26T04:35:14;2.47;;;1.02;;
51943;SDS011;37969;53.132;6.370;2023-02-26T04:37:40;6.10;;;1.05;;
51943;SDS011;37969;53.132;6.370;2023-02-26T04:40:06;4.10;;;1.20;;
51943;SDS011;37969;53.132;6.370;2023-02-26T04:42:33;6.28;;;1.00;;
51943;SDS011;37969;53.132;6.370;2023-02-26T04:44:59;5.05;;;0.73;;
51943;SDS011;37969;53.132;6.370;2023-02-26T04:47:25;3.22;;;1.00;;
51943;SDS011;37969;53.132;6.370;2023-02-26T04:49:51;5.88;;;1.00;;
51943;SDS011;37969;53.132;6.370;2023-02-26T04:52:17;6.95;;;1.50;;
51943;SDS011;37969;53.132;6.370;2023-02-26T04:54:43;5.50;;;1.05;;
51943;SDS011;37969;53.132;6.370;2023-02-26T04:57:10;4.20;;;1.00;;
51943;SDS011;37969;53.132;6.370;2023-02-26T04:59:36;5.57;;;0.95;;
51943;SDS011;37969;53.132;6.370;2023-02-26T05:02:03;3.67;;;1.08;;
51943;SDS011;37969;53.132;6.370;2023-02-26T05:04:29;4.80;;;1.48;;
51943;SDS011;37969;53.132;6.370;2023-02-26T05:06:55;2.40;;;1.02;;
51943;SDS011;37969;53.132;6.370;2023-02-26T05:09:22;7.43;;;0.90;;
51943;SDS011;37969;53.132;6.370;2023-02-26T05:11:48;6.00;;;0.95;;
51943;SDS011;37969;53.132;6.370;2023-02-26T05:14:14;4.10;;;1.02;;
51943;SDS011;37969;53.132;6.370;2023-02-26T05:16:40;4.40;;;1.30;;
51943;SDS011;37969;53.132;6.370;2023-02-26T05:19:07;5.35;;;1.02;;
51943;SDS011;37969;53.132;6.370;2023-02-26T05:21:33;6.18;;;0.90;;
51943;SDS011;37969;53.132;6.370;2023-02-26T05:23:59;7.85;;;1.10;;
51943;SDS011;37969;53.132;6.370;2023-02-26T05:26:25;3.63;;;0.93;;
51943;SDS011;37969;53.132;6.370;2023-02-26T05:28:51;7.60;;;0.93;;
51943;SDS011;37969;53.132;6.370;2023-02-26T05:31:18;6.72;;;0.90;;
51943;SDS011;37969;53.132;6.370;2023-02-26T05:33:44;4.22;;;0.82;;
51943;SDS011;37969;53.132;6.370;2023-02-26T05:36:11;5.05;;;1.00;;
51943;SDS011;37969;53.132;6.370;2023-02-26T05:38:37;5.85;;;1.08;;
51943;SDS011;37969;53.132;6.370;2023-02-26T05:41:03;4.95;;;1.13;;
51943;SDS011;37969;53.132;6.370;2023-02-26T05:43:29;7.38;;;0.98;;
51943;SDS011;37969;53.132;6.370;2023-02-26T05:45:57;7.43;;;1.17;;
51943;SDS011;37969;53.132;6.370;2023-02-26T05:48:23;5.85;;;0.80;;
51943;SDS011;37969;53.132;6.370;2023-02-26T05:50:50;3.83;;;1.00;;
51943;SDS011;37969;53.132;6.370;2023-02-26T05:53:16;7.97;;;0.82;;
51943;SDS011;37969;53.132;6.370;2023-02-26T05:55:42;4.28;;;0.85;;
51943;SDS011;37969;53.132;6.370;2023-02-26T05:58:09;3.13;;;0.77;;
51943;SDS011;37969;53.132;6.370;2023-02-26T06:00:35;8.77;;;1.17;;
51943;SDS011;37969;53.132;6.370;2023-02-26T06:03:01;4.75;;;0.80;;
51943;SDS011;37969;53.132;6.370;2023-02-26T06:05:27;3.67;;;0.80;;
51943;SDS011;37969;53.132;6.370;2023-02-26T06:07:53;5.32;;;1.10;;
51943;SDS011;37969;53.132;6.370;2023-02-26T06:10:19;3.70;;;1.05;;
51943;SDS011;37969;53.132;6.370;2023-02-26T06:12:45;7.07;;;1.08;;
51943;SDS011;37969;53.132;6.370;2023-02-26T06:15:12;2.75;;;0.80;;
51943;SDS011;37969;53.132;6.370;2023-02-26T06:17:38;3.70;;;1.13;;
51943;SDS011;37969;53.132;6.370;2023-02-26T06:20:05;4.35;;;0.75;;
51943;SDS011;37969;53.132;6.370;2023-02-26T06:22:31;5.22;;;0.90;;
51943;SDS011;37969;53.132;6.370;2023-02-26T06:24:57;4.30;;;1.20;;
51943;SDS011;37969;53.132;6.370;2023-02-26T06:27:24;4.95;;;1.17;;
51943;SDS011;37969;53.132;6.370;2023-02-26T06:29:50;8.57;;;1.77;;
51943;SDS011;37969;53.132;6.370;2023-02-26T06:32:16;5.82;;;1.65;;
51943;SDS011;37969;53.132;6.370;2023-02-26T06:34:42;2.15;;;0.80;;
51943;SDS011;37969;53.132;6.370;2023-02-26T06:37:08;4.63;;;0.80;;
51943;SDS011;37969;53.132;6.370;2023-02-26T06:39:34;5.03;;;0.93;;
51943;SDS011;37969;53.132;6.370;2023-02-26T06:42:00;3.00;;;0.90;;
51943;SDS011;37969;53.132;6.370;2023-02-26T06:44:27;3.60;;;0.88;;
51943;SDS011;37969;53.132;6.370;2023-02-26T06:46:53;3.78;;;1.00;;
51943;SDS011;37969;53.132;6.370;2023-02-26T06:49:19;5.20;;;1.25;;
51943;SDS011;37969;53.132;6.370;2023-02-26T06:51:45;6.45;;;1.00;;
51943;SDS011;37969;53.132;6.370;2023-02-26T06:54:11;4.18;;;0.98;;
51943;SDS011;37969;53.132;6.370;2023-02-26T06:56:37;9.95;;;1.67;;
51943;SDS011;37969;53.132;6.370;2023-02-26T06:59:04;4.63;;;1.15;;
51943;SDS011;37969;53.132;6.370;2023-02-26T07:01:30;6.63;;;1.60;;
51943;SDS011;37969;53.132;6.370;2023-02-26T07:03:56;4.05;;;1.50;;
51943;SDS011;37969;53.132;6.370;2023-02-26T07:06:23;6.55;;;1.40;;
51943;SDS011;37969;53.132;6.370;2023-02-26T07:08:49;7.10;;;1.58;;
51943;SDS011;37969;53.132;6.370;2023-02-26T07:11:15;11.15;;;1.50;;
51943;SDS011;37969;53.132;6.370;2023-02-26T07:13:41;8.60;;;1.50;;
51943;SDS011;37969;53.132;6.370;2023-02-26T07:16:07;6.95;;;1.17;;
51943;SDS011;37969;53.132;6.370;2023-02-26T07:18:35;9.60;;;1.30;;
51943;SDS011;37969;53.132;6.370;2023-02-26T07:21:02;8.43;;;1.45;;
51943;SDS011;37969;53.132;6.370;2023-02-26T07:23:28;4.88;;;1.27;;
51943;SDS011;37969;53.132;6.370;2023-02-26T07:25:54;4.90;;;1.75;;
51943;SDS011;37969;53.132;6.370;2023-02-26T07:28:22;8.68;;;1.27;;
51943;SDS011;37969;53.132;6.370;2023-02-26T07:30:48;3.45;;;0.95;;
51943;SDS011;37969;53.132;6.370;2023-02-26T07:33:14;5.57;;;1.23;;
51943;SDS011;37969;53.132;6.370;2023-02-26T07:35:40;5.30;;;1.30;;
51943;SDS011;37969;53.132;6.370;2023-02-26T07:38:06;5.50;;;1.23;;
51943;SDS011;37969;53.132;6.370;2023-02-26T07:40:33;9.55;;;1.20;;
51943;SDS011;37969;53.132;6.370;2023-02-26T07:42:59;4.45;;;1.27;;
51943;SDS011;37969;53.132;6.370;2023-02-26T07:45:25;4.00;;;0.80;;
51943;SDS011;37969;53.132;6.370;2023-02-26T07:47:51;9.35;;;1.00;;
51943;SDS011;37969;53.132;6.370;2023-02-26T07:50:18;3.47;;;1.10;;
51943;SDS011;37969;53.132;6.370;2023-02-26T07:52:45;5.00;;;1.13;;
51943;SDS011;37969;53.132;6.370;2023-02-26T07:55:11;5.05;;;1.10;;
51943;SDS011;37969;53.132;6.370;2023-02-26T07:57:37;5.18;;;1.00;;
51943;SDS011;37969;53.132;6.370;2023-02-26T08:00:04;7.13;;;1.50;;
51943;SDS011;37969;53.132;6.370;2023-02-26T08:02:31;5.60;;;1.05;;
51943;SDS011;37969;53.132;6.370;2023-02-26T08:04:57;6.20;;;1.10;;
51943;SDS011;37969;53.132;6.370;2023-02-26T08:07:23;7.93;;;1.55;;
51943;SDS011;37969;53.132;6.370;2023-02-26T08:09:49;8.30;;;1.20;;
51943;SDS011;37969;53.132;6.370;2023-02-26T08:12:15;4.38;;;1.30;;
51943;SDS011;37969;53.132;6.370;2023-02-26T08:14:42;5.65;;;1.40;;
51943;SDS011;37969;53.132;6.370;2023-02-26T08:17:08;3.97;;;1.52;;
51943;SDS011;37969;53.132;6.370;2023-02-26T08:19:35;2.83;;;1.58;;
51943;SDS011;37969;53.132;6.370;2023-02-26T08:22:02;7.13;;;2.60;;
51943;SDS011;37969;53.132;6.370;2023-02-26T08:24:28;5.57;;;2.65;;
51943;SDS011;37969;53.132;6.370;2023-02-26T08:26:54;5.78;;;1.88;;
51943;SDS011;37969;53.132;6.370;2023-02-26T08:29:21;4.93;;;1.15;;
51943;SDS011;37969;53.132;6.370;2023-02-26T08:31:47;7.07;;;1.13;;
51943;SDS011;37969;53.132;6.370;2023-02-26T08:34:13;5.25;;;2.00;;
51943;SDS011;37969;53.132;6.370;2023-02-26T08:36:40;6.55;;;2.05;;
51943;SDS011;37969;53.132;6.370;2023-02-26T08:39:06;10.35;;;1.92;;
51943;SDS011;37969;53.132;6.370;2023-02-26T08:41:32;3.67;;;1.10;;
51943;SDS011;37969;53.132;6.370;2023-02-26T08:44:00;4.57;;;1.20;;
51943;SDS011;37969;53.132;6.370;2023-02-26T08:46:26;1.67;;;1.17;;
51943;SDS011;37969;53.132;6.370;2023-02-26T08:48:52;10.38;;;1.50;;
51943;SDS011;37969;53.132;6.370;2023-02-26T08:51:19;4.00;;;1.08;;
51943;SDS011;37969;53.132;6.370;2023-02-26T08:53:46;1.63;;;0.90;;
51943;SDS011;37969;53.132;6.370;2023-02-26T08:56:14;5.57;;;1.10;;
51943;SDS011;37969;53.132;6.370;2023-02-26T08:58:40;3.55;;;1.00;;
51943;SDS011;37969;53.132;6.370;2023-02-26T09:01:06;4.75;;;0.95;;
51943;SDS011;37969;53.132;6.370;2023-02-26T09:03:33;10.27;;;1.58;;
51943;SDS011;37969;53.132;6.370;2023-02-26T09:05:59;3.30;;;1.23;;
51943;SDS011;37969;53.132;6.370;2023-02-26T09:08:25;7.95;;;1.60;;
51943;SDS011;37969;53.132;6.370;2023-02-26T09:10:52;4.38;;;1.10;;
51943;SDS011;37969;53.132;6.370;2023-02-26T09:13:18;6.38;;;1.27;;
51943;SDS011;37969;53.132;6.370;2023-02-26T09:15:44;4.60;;;1.08;;
51943;SDS011;37969;53.132;6.370;2023-02-26T09:18:10;5.78;;;1.00;;
51943;SDS011;37969;53.132;6.370;2023-02-26T09:20:41;7.80;;;0.98;;
51943;SDS011;37969;53.132;6.370;2023-02-26T09:23:07;6.35;;;1.52;;
51943;SDS011;37969;53.132;6.370;2023-02-26T09:25:34;2.50;;;0.80;;
51943;SDS011;37969;53.132;6.370;2023-02-26T09:28:00;9.38;;;1.10;;
51943;SDS011;37969;53.132;6.370;2023-02-26T09:30:26;4.13;;;1.10;;
51943;SDS011;37969;53.132;6.370;2023-02-26T09:32:53;6.05;;;1.52;;
51943;SDS011;37969;53.132;6.370;2023-02-26T09:35:19;5.80;;;1.00;;
51943;SDS011;37969;53.132;6.370;2023-02-26T09:37:45;5.10;;;1.00;;
51943;SDS011;37969;53.132;6.370;2023-02-26T09:40:19;3.10;;;1.05;;
51943;SDS011;37969;53.132;6.370;2023-02-26T09:42:52;5.40;;;1.13;;
51943;SDS011;37969;53.132;6.370;2023-02-26T09:45:29;7.40;;;1.05;;
51943;SDS011;37969;53.132;6.370;2023-02-26T09:47:56;3.88;;;0.70;;
51943;SDS011;37969;53.132;6.370;2023-02-26T09:50:25;3.70;;;0.70;;
51943;SDS011;37969;53.132;6.370;2023-02-26T09:53:10;4.68;;;1.08;;
51943;SDS011;37969;53.132;6.370;2023-02-26T09:55:40;4.35;;;0.68;;
51943;SDS011;37969;53.132;6.370;2023-02-26T09:58:15;3.30;;;0.50;;
51943;SDS011;37969;53.132;6.370;2023-02-26T10:00:44;6.78;;;1.00;;
51943;SDS011;37969;53.132;6.370;2023-02-26T10:03:24;6.32;;;1.10;;
51943;SDS011;37969;53.132;6.370;2023-02-26T10:08:18;6.25;;;1.20;;
51943;SDS011;37969;53.132;6.370;2023-02-26T10:10:55;6.13;;;0.98;;
51943;SDS011;37969;53.132;6.370;2023-02-26T10:13:30;2.25;;;0.65;;
51943;SDS011;37969;53.132;6.370;2023-02-26T10:16:00;3.60;;;0.80;;
51943;SDS011;37969;53.132;6.370;2023-02-26T10:18:31;4.50;;;0.93;;
51943;SDS011;37969;53.132;6.370;2023-02-26T10:26:02;2.22;;;0.93;;
51943;SDS011;37969;53.132;6.370;2023-02-26T10:30:57;2.80;;;0.65;;
51943;SDS011;37969;53.132;6.370;2023-02-26T10:33:35;6.07;;;0.70;;
51943;SDS011;37969;53.132;6.370;2023-02-26T10:36:16;4.35;;;1.02;;
51943;SDS011;37969;53.132;6.370;2023-02-26T10:38:45;5.38;;;0.90;;
51943;SDS011;37969;53.132;6.370;2023-02-26T10:41:13;5.47;;;0.90;;
51943;SDS011;37969;53.132;6.370;2023-02-26T10:43:41;6.75;;;0.90;;
51943;SDS011;37969;53.132;6.370;2023-02-26T10:48:59;2.47;;;0.65;;
51943;SDS011;37969;53.132;6.370;2023-02-26T10:51:32;3.70;;;0.70;;
51943;SDS011;37969;53.132;6.370;2023-02-26T10:56:30;5.40;;;1.00;;
51943;SDS011;37969;53.132;6.370;2023-02-26T10:58:57;2.70;;;0.73;;
51943;SDS011;37969;53.132;6.370;2023-02-26T11:01:24;10.00;;;1.13;;
51943;SDS011;37969;53.132;6.370;2023-02-26T11:03:55;2.10;;;0.55;;
51943;SDS011;37969;53.132;6.370;2023-02-26T11:06:26;6.03;;;0.90;;
51943;SDS011;37969;53.132;6.370;2023-02-26T11:08:54;6.55;;;0.90;;
51943;SDS011;37969;53.132;6.370;2023-02-26T11:11:35;4.68;;;0.70;;
51943;SDS011;37969;53.132;6.370;2023-02-26T11:14:02;6.57;;;0.90;;
51943;SDS011;37969;53.132;6.370;2023-02-26T11:16:28;6.20;;;1.20;;
51943;SDS011;37969;53.132;6.370;2023-02-26T11:18:54;8.77;;;0.95;;
51943;SDS011;37969;53.132;6.370;2023-02-26T11:21:25;2.22;;;0.80;;
51943;SDS011;37969;53.132;6.370;2023-02-26T11:23:54;5.13;;;0.90;;
51943;SDS011;37969;53.132;6.370;2023-02-26T11:26:24;6.63;;;0.88;;
51943;SDS011;37969;53.132;6.370;2023-02-26T11:28:53;5.80;;;1.20;;
51943;SDS011;37969;53.132;6.370;2023-02-26T11:31:20;3.90;;;0.90;;
51943;SDS011;37969;53.132;6.370;2023-02-26T11:33:49;4.97;;;0.88;;
51943;SDS011;37969;53.132;6.370;2023-02-26T11:36:17;2.22;;;1.20;;
51943;SDS011;37969;53.132;6.370;2023-02-26T11:38:44;4.43;;;0.88;;
51943;SDS011;37969;53.132;6.370;2023-02-26T11:41:11;6.57;;;1.15;;
51943;SDS011;37969;53.132;6.370;2023-02-26T11:43:42;7.50;;;1.20;;
51943;SDS011;37969;53.132;6.370;2023-02-26T11:46:09;4.18;;;0.85;;
51943;SDS011;37969;53.132;6.370;2023-02-26T11:48:40;5.45;;;0.98;;
51943;SDS011;37969;53.132;6.370;2023-02-26T11:51:10;6.90;;;1.67;;
51943;SDS011;37969;53.132;6.370;2023-02-26T11:56:10;4.03;;;0.90;;
51943;SDS011;37969;53.132;6.370;2023-02-26T11:58:37;2.85;;;0.80;;
51943;SDS011;37969;53.132;6.370;2023-02-26T12:01:05;5.22;;;1.00;;
51943;SDS011;37969;53.132;6.370;2023-02-26T12:03:33;6.13;;;1.73;;
51943;SDS011;37969;53.132;6.370;2023-02-26T12:06:00;5.05;;;1.42;;
51943;SDS011;37969;53.132;6.370;2023-02-26T12:08:31;13.27;;;2.05;;
51943;SDS011;37969;53.132;6.370;2023-02-26T12:16:24;9.32;;;1.70;;
51943;SDS011;37969;53.132;6.370;2023-02-26T12:18:56;5.53;;;1.30;;
51943;SDS011;37969;53.132;6.370;2023-02-26T12:23:58;3.63;;;1.13;;
51943;SDS011;37969;53.132;6.370;2023-02-26T12:26:31;6.38;;;1.75;;
51943;SDS011;37969;53.132;6.370;2023-02-26T12:29:09;6.45;;;1.20;;
51943;SDS011;37969;53.132;6.370;2023-02-26T12:31:48;3.67;;;1.05;;
51943;SDS011;37969;53.132;6.370;2023-02-26T12:37:10;4.70;;;1.05;;
51943;SDS011;37969;53.132;6.370;2023-02-26T12:39:49;8.15;;;1.38;;
51943;SDS011;37969;53.132;6.370;2023-02-26T12:42:27;10.25;;;1.52;;
51943;SDS011;37969;53.132;6.370;2023-02-26T12:49:53;3.30;;;1.40;;
51943;SDS011;37969;53.132;6.370;2023-02-26T12:52:41;4.50;;;1.38;;
51943;SDS011;37969;53.132;6.370;2023-02-26T12:55:16;12.07;;;1.58;;
51943;SDS011;37969;53.132;6.370;2023-02-26T12:57:50;4.45;;;1.00;;
51943;SDS011;37969;53.132;6.370;2023-02-26T13:00:21;10.68;;;1.65;;
51943;SDS011;37969;53.132;6.370;2023-02-26T13:03:06;4.68;;;0.90;;
51943;SDS011;37969;53.132;6.370;2023-02-26T13:05:46;5.35;;;1.17;;
51943;SDS011;37969;53.132;6.370;2023-02-26T13:08:19;2.38;;;0.82;;
51943;SDS011;37969;53.132;6.370;2023-02-26T13:10:53;4.63;;;1.05;;
51943;SDS011;37969;53.132;6.370;2023-02-26T13:13:36;6.63;;;1.50;;
51943;SDS011;37969;53.132;6.370;2023-02-26T13:16:14;10.45;;;1.67;;
51943;SDS011;37969;53.132;6.370;2023-02-26T13:21:20;7.32;;;1.23;;
51943;SDS011;37969;53.132;6.370;2023-02-26T13:23:48;6.32;;;1.30;;
51943;SDS011;37969;53.132;6.370;2023-02-26T13:26:16;6.25;;;1.25;;
51943;SDS011;37969;53.132;6.370;2023-02-26T13:28:46;6.93;;;1.33;;
51943;SDS011;37969;53.132;6.370;2023-02-26T13:31:15;8.70;;;1.33;;
51943;SDS011;37969;53.132;6.370;2023-02-26T13:33:42;6.32;;;1.40;;
51943;SDS011;37969;53.132;6.370;2023-02-26T13:36:09;7.43;;;1.25;;
51943;SDS011;37969;53.132;6.370;2023-02-26T13:43:40;6.65;;;1.38;;
51943;SDS011;37969;53.132;6.370;2023-02-26T13:46:15;8.35;;;1.35;;
51943;SDS011;37969;53.132;6.370;2023-02-26T13:48:56;11.52;;;1.83;;
51943;SDS011;37969;53.132;6.370;2023-02-26T13:51:27;7.45;;;1.42;;
51943;SDS011;37969;53.132;6.370;2023-02-26T13:56:22;8.10;;;1.65;;
51943;SDS011;37969;53.132;6.370;2023-02-26T13:59:03;6.03;;;1.60;;
51943;SDS011;37969;53.132;6.370;2023-02-26T14:01:31;7.15;;;1.02;;
51943;SDS011;37969;53.132;6.370;2023-02-26T14:06:44;10.40;;;1.77;;
51943;SDS011;37969;53.132;6.370;2023-02-26T14:09:33;8.38;;;1.70;;
51943;SDS011;37969;53.132;6.370;2023-02-26T14:12:00;5.43;;;1.25;;
51943;SDS011;37969;53.132;6.370;2023-02-26T14:19:26;5.72;;;1.10;;
51943;SDS011;37969;53.132;6.370;2023-02-26T14:21:53;9.00;;;1.40;;
51943;SDS011;37969;53.132;6.370;2023-02-26T14:26:50;6.03;;;1.20;;
51943;SDS011;37969;53.132;6.370;2023-02-26T14:32:10;4.80;;;1.27;;
51943;SDS011;37969;53.132;6.370;2023-02-26T14:34:42;7.40;;;1.33;;
51943;SDS011;37969;53.132;6.370;2023-02-26T14:37:11;3.67;;;1.30;;
51943;SDS011;37969;53.132;6.370;2023-02-26T14:39:40;4.87;;;1.40;;
51943;SDS011;37969;53.132;6.370;2023-02-26T14:42:10;4.70;;;1.05;;
51943;SDS011;37969;53.132;6.370;2023-02-26T14:44:39;7.90;;;1.10;;
51943;SDS011;37969;53.132;6.370;2023-02-26T14:47:06;7.53;;;1.50;;
51943;SDS011;37969;53.132;6.370;2023-02-26T14:49:34;8.60;;;1.73;;
51943;SDS011;37969;53.132;6.370;2023-02-26T14:52:05;6.20;;;1.88;;
51943;SDS011;37969;53.132;6.370;2023-02-26T14:54:38;6.05;;;1.90;;
51943;SDS011;37969;53.132;6.370;2023-02-26T15:02:20;5.70;;;1.73;;
51943;SDS011;37969;53.132;6.370;2023-02-26T15:12:18;16.63;;;2.05;;
51943;SDS011;37969;53.132;6.370;2023-02-26T15:17:19;6.28;;;1.40;;
51943;SDS011;37969;53.132;6.370;2023-02-26T15:19:54;7.97;;;1.60;;
51943;SDS011;37969;53.132;6.370;2023-02-26T15:22:27;7.63;;;1.80;;
51943;SDS011;37969;53.132;6.370;2023-02-26T15:24:54;8.80;;;3.28;;
51943;SDS011;37969;53.132;6.370;2023-02-26T15:27:20;5.40;;;1.20;;
51943;SDS011;37969;53.132;6.370;2023-02-26T15:29:47;16.40;;;2.83;;
51943;SDS011;37969;53.132;6.370;2023-02-26T15:32:21;7.65;;;2.60;;
51943;SDS011;37969;53.132;6.370;2023-02-26T15:34:54;6.93;;;2.15;;
51943;SDS011;37969;53.132;6.370;2023-02-26T15:37:21;11.25;;;1.92;;
51943;SDS011;37969;53.132;6.370;2023-02-26T15:39:48;9.23;;;1.95;;
51943;SDS011;37969;53.132;6.370;2023-02-26T15:42:15;16.45;;;2.78;;
51943;SDS011;37969;53.132;6.370;2023-02-26T15:44:42;5.72;;;1.60;;
51943;SDS011;37969;53.132;6.370;2023-02-26T15:47:09;7.22;;;1.55;;
51943;SDS011;37969;53.132;6.370;2023-02-26T15:49:37;5.55;;;1.08;;
51943;SDS011;37969;53.132;6.370;2023-02-26T15:52:04;7.32;;;1.38;;
51943;SDS011;37969;53.132;6.370;2023-02-26T15:54:33;5.28;;;1.50;;
51943;SDS011;37969;53.132;6.370;2023-02-26T15:57:00;7.45;;;1.40;;
51943;SDS011;37969;53.132;6.370;2023-02-26T15:59:27;4.63;;;1.35;;
51943;SDS011;37969;53.132;6.370;2023-02-26T16:01:55;6.15;;;1.30;;
51943;SDS011;37969;53.132;6.370;2023-02-26T16:04:21;6.57;;;1.30;;
51943;SDS011;37969;53.132;6.370;2023-02-26T16:06:51;9.10;;;1.33;;
51943;SDS011;37969;53.132;6.370;2023-02-26T16:09:18;8.55;;;1.70;;
51943;SDS011;37969;53.132;6.370;2023-02-26T16:11:45;4.97;;;1.90;;
51943;SDS011;37969;53.132;6.370;2023-02-26T16:14:15;7.60;;;1.80;;
51943;SDS011;37969;53.132;6.370;2023-02-26T16:16:43;9.73;;;1.73;;
51943;SDS011;37969;53.132;6.370;2023-02-26T16:19:13;7.78;;;1.50;;
51943;SDS011;37969;53.132;6.370;2023-02-26T16:21:40;9.00;;;1.92;;
51943;SDS011;37969;53.132;6.370;2023-02-26T16:24:07;7.35;;;1.50;;
51943;SDS011;37969;53.132;6.370;2023-02-26T16:26:37;5.05;;;1.50;;
51943;SDS011;37969;53.132;6.370;2023-02-26T16:29:07;10.60;;;2.72;;
51943;SDS011;37969;53.132;6.370;2023-02-26T16:31:36;8.88;;;1.55;;
51943;SDS011;37969;53.132;6.370;2023-02-26T16:34:03;10.05;;;1.58;;
51943;SDS011;37969;53.132;6.370;2023-02-26T16:36:31;7.22;;;1.52;;
51943;SDS011;37969;53.132;6.370;2023-02-26T16:39:09;5.60;;;1.42;;
51943;SDS011;37969;53.132;6.370;2023-02-26T16:41:39;8.52;;;1.80;;
51943;SDS011;37969;53.132;6.370;2023-02-26T16:44:34;9.02;;;1.58;;
51943;SDS011;37969;53.132;6.370;2023-02-26T16:47:01;6.70;;;1.67;;
51943;SDS011;37969;53.132;6.370;2023-02-26T16:49:29;10.55;;;1.50;;
51943;SDS011;37969;53.132;6.370;2023-02-26T16:51:56;8.33;;;1.47;;
51943;SDS011;37969;53.132;6.370;2023-02-26T16:54:24;10.95;;;2.45;;
51943;SDS011;37969;53.132;6.370;2023-02-26T16:56:55;4.65;;;1.27;;
51943;SDS011;37969;53.132;6.370;2023-02-26T16:59:23;6.70;;;1.65;;